Data for 07/18/2005

Time Sea-Level Adjusted Pressure Absolute Pressure Temperature Relative Humidity Dew Point   
(mb) (inHg) (mb) (inHg) (C) (F) (%) (C) (F)
00:05 1022 30.18 851 25.13 13.5 56.3 60 6.1 42.9
00:10 1022 30.18 851 25.13 13.2 55.7 62 6.2 43.1
00:15 1022 30.18 851 25.13 12.9 55.2 63 6 42.8
00:20 1022 30.18 851 25.13 12.6 54.7 64 6 42.7
00:25 1022 30.18 851 25.13 12.4 54.3 64 5.8 42.5
00:30 1022 30.18 851 25.13 12.4 54.3 64 5.8 42.4
00:35 1022 30.18 851 25.13 12.4 54.3 64 5.8 42.5
00:40 1022 30.18 851 25.13 12.4 54.4 64 5.8 42.4
00:45 1022 30.18 851 25.13 12.5 54.5 64 5.8 42.5
00:50 1022 30.18 851 25.13 12.5 54.4 63 5.6 42.1
00:55 1022 30.18 851 25.13 12.6 54.8 62 5.6 42.1
01:00 1022 30.18 851 25.13 12.8 55.1 60 5.4 41.7
01:05 1022 30.18 851 25.13 13.1 55.6 61 5.8 42.5
01:10 1022 30.18 851 25.13 13.1 55.5 59 5.2 41.4
01:15 1022 30.18 851 25.13 13.7 56.6 57 5.3 41.5
01:20 1021 30.15 851 25.13 14 57.2 57 5.7 42.2
01:25 1021 30.15 851 25.13 13.4 56.1 61 6 42.9
01:30 1021 30.15 851 25.13 12.6 54.8 62 5.6 42.1
01:35 1021 30.15 851 25.13 13.1 55.6 58 5.2 41.3
01:40 1021 30.15 851 25.13 13.8 56.9 56 5.2 41.4
01:45 1021 30.15 850 25.1 14.1 57.4 55 5.4 41.6
01:50 1021 30.15 850 25.1 14.2 57.6 55 5.3 41.5
01:55 1021 30.15 850 25.1 14.2 57.6 55 5.3 41.6
02:00 1021 30.15 851 25.13 14.2 57.5 57 5.7 42.3
02:05 1021 30.15 851 25.13 13.1 55.6 62 6.1 43
02:10 1021 30.15 851 25.13 12.5 54.5 62 5.5 41.9
02:15 1021 30.15 850 25.1 12.9 55.2 60 5.2 41.4
02:20 1021 30.15 850 25.1 13 55.5 63 6.2 43.1
02:25 1021 30.15 850 25.1 12.6 54.7 63 5.7 42.3
02:30 1021 30.15 850 25.1 12.5 54.4 62 5.4 41.7
02:35 1021 30.15 850 25.1 12.6 54.6 63 5.7 42.2
02:40 1021 30.15 850 25.1 12.2 53.9 65 5.8 42.5
02:45 1021 30.15 850 25.1 11.9 53.4 66 5.8 42.5
02:50 1021 30.15 850 25.1 11.8 53.2 66 5.7 42.3
02:55 1021 30.15 850 25.1 11.7 53.1 66 5.5 42
03:00 1021 30.15 850 25.1 11.7 53 65 5.3 41.5
03:05 1021 30.15 850 25.1 11.8 53.2 65 5.4 41.7
03:10 1021 30.15 850 25.1 11.8 53.2 65 5.5 41.8
03:15 1021 30.15 850 25.1 11.9 53.3 64 5.4 41.6
03:20 1021 30.15 850 25.1 11.9 53.4 64 5.3 41.6
03:25 1021 30.15 850 25.1 12 53.6 63 5.3 41.5
03:30 1021 30.15 850 25.1 12 53.7 63 5.3 41.5
03:35 1021 30.15 850 25.1 12 53.6 63 5.3 41.6
03:40 1021 30.15 850 25.1 12 53.5 63 5.3 41.5
03:45 1021 30.15 850 25.1 11.8 53.3 64 5.3 41.5
03:50 1021 30.15 850 25.1 11.8 53.2 64 5.3 41.5
03:55 1021 30.15 850 25.1 11.6 52.8 64 5.1 41.2
04:00 1021 30.15 850 25.1 11.6 52.9 63 4.9 40.9
04:05 1021 30.15 850 25.1 11.7 53 64 5.1 41.3
04:10 1021 30.15 850 25.1 11.5 52.7 64 5 41.1
04:15 1021 30.15 850 25.1 11.6 52.9 65 5.3 41.5
04:20 1021 30.15 850 25.1 11.3 52.3 65 5 41.1
04:25 1021 30.15 850 25.1 11.3 52.3 66 5.1 41.2
04:30 1021 30.15 850 25.1 11.2 52.1 65 5 40.9
04:35 1021 30.15 850 25.1 11.3 52.3 65 5.1 41.1
04:40 1020 30.12 850 25.1 11.3 52.4 65 5 41.1
04:45 1020 30.12 850 25.1 11.4 52.6 64 5 41
04:50 1020 30.12 850 25.1 11.4 52.5 64 4.8 40.6
04:55 1020 30.12 850 25.1 11.4 52.5 65 5.2 41.4
05:00 1020 30.12 850 25.1 11.2 52.1 65 4.9 40.9
05:05 1020 30.12 850 25.1 11 51.8 66 5 41.1
05:10 1020 30.12 850 25.1 10.8 51.4 68 5.1 41.1
05:15 1020 30.12 850 25.1 10.5 50.9 68 4.9 40.9
05:20 1020 30.12 850 25.1 10.5 50.9 69 5 41.1
05:25 1020 30.12 850 25.1 10.2 50.4 69 4.9 40.9
05:30 1020 30.12 850 25.1 10.3 50.5 69 4.9 40.8
05:35 1020 30.12 850 25.1 10.3 50.5 69 4.9 40.9
05:40 1020 30.12 850 25.1 10.4 50.6 69 4.9 40.8
05:45 1020 30.12 850 25.1 10.3 50.5 69 4.9 40.9
05:50 1020 30.12 850 25.1 10.2 50.4 69 4.8 40.6
05:55 1020 30.12 850 25.1 10.3 50.6 69 4.9 40.9
06:00 1020 30.12 850 25.1 10.2 50.4 70 5 41
06:05 1020 30.12 850 25.1 10.1 50.2 70 4.9 40.8
06:10 1020 30.12 850 25.1 10.1 50.2 70 4.9 40.8
06:15 1020 30.12 850 25.1 10.2 50.3 69 4.9 40.7
06:20 1020 30.12 850 25.1 10.3 50.5 69 4.8 40.7
06:25 1020 30.12 850 25.1 10.6 51 67 4.8 40.7
06:30 1020 30.12 850 25.1 10.7 51.2 67 4.9 40.9
06:35 1020 30.12 850 25.1 10.7 51.3 67 4.8 40.7
06:40 1020 30.12 850 25.1 10.8 51.5 68 5.1 41.2
06:45 1020 30.12 850 25.1 10.8 51.4 67 5 41
06:50 1020 30.12 849 25.07 11.1 52 66 4.9 40.9
06:55 1020 30.12 850 25.1 11.3 52.3 65 5.1 41.2
07:00 1020 30.12 850 25.1 11.5 52.7 66 5.3 41.6
07:05 1020 30.12 850 25.1 11.6 52.9 65 5.2 41.4
07:10 1020 30.12 850 25.1 11.9 53.3 64 5.3 41.5
07:15 1020 30.12 850 25.1 12.2 54 65 6 42.8
07:20 1020 30.12 850 25.1 12.6 54.6 64 5.9 42.7
07:25 1020 30.12 850 25.1 13.2 55.7 60 5.7 42.3
07:30 1020 30.12 849 25.07 13.2 55.8 61 6 42.8
07:35 1020 30.12 849 25.07 12.9 55.3 62 5.8 42.5
07:40 1020 30.12 850 25.1 13.1 55.5 62 6 42.8
07:45 1020 30.12 849 25.07 13.4 56.1 60 5.9 42.6
07:50 1020 30.12 849 25.07 14.2 57.6 57 6 42.7
07:55 1020 30.12 849 25.07 14.4 57.9 57 6.1 42.9
08:00 1020 30.12 849 25.07 14.8 58.6 56 6.3 43.3
08:05 1020 30.12 849 25.07 15.1 59.2 52 5.4 41.8
08:10 1020 30.12 849 25.07 15.6 60.1 51 5.7 42.2
08:15 1020 30.12 849 25.07 16 60.7 51 6 42.8
08:20 1020 30.12 849 25.07 16.6 61.9 48 5.6 42.1
08:25 1020 30.12 849 25.07 16.5 61.8 49 5.9 42.7
08:30 1020 30.12 849 25.07 16.8 62.3 49 6.1 43
08:35 1020 30.12 849 25.07 17.1 62.8 48 6.1 42.9
08:40 1020 30.12 849 25.07 17.2 62.9 47 5.9 42.6
08:45 1020 30.12 849 25.07 17.4 63.3 46 5.9 42.6
08:50 1020 30.12 849 25.07 17.6 63.6 47 6.3 43.3
08:55 1020 30.12 849 25.07 17.7 63.9 47 6.4 43.6
09:00 1020 30.12 849 25.07 18 64.4 46 6.4 43.5
09:05 1020 30.12 849 25.07 18.3 64.9 46 6.6 43.8
09:10 1020 30.12 849 25.07 18.5 65.3 44 6.3 43.4
09:15 1020 30.12 849 25.07 18.5 65.3 45 6.4 43.5
09:20 1020 30.12 849 25.07 18.5 65.2 46 6.7 44
09:25 1020 30.12 849 25.07 18.6 65.5 46 7 44.6
09:30 1020 30.12 849 25.07 18.8 65.8 45 6.8 44.2
09:35 1020 30.12 849 25.07 18.6 65.4 45 6.6 43.8
09:40 1020 30.12 849 25.07 18.2 64.8 46 6.5 43.7
09:45 1020 30.12 849 25.07 18.7 65.7 44 6.5 43.7
09:50 1019 30.09 849 25.07 19.2 66.5 43 6.5 43.8
09:55 1019 30.09 849 25.07 20.3 68.5 40 6.2 43.2
10:00 1019 30.09 849 25.07 19.9 67.7 43 7.2 44.9
10:05 1019 30.09 849 25.07 20 68 40 6.2 43.2
10:10 1019 30.09 849 25.07 21 69.8 37 6 42.9
10:15 1019 30.09 849 25.07 20.6 69.1 40 6.5 43.8
10:20 1019 30.09 849 25.07 19.5 67.1 43 6.6 43.9
10:25 1019 30.09 849 25.07 20 68 41 6.4 43.5
10:30 1019 30.09 848 25.04 20.4 68.7 39 6.2 43.1
10:35 1019 30.09 848 25.04 20.5 68.9 39 6.1 43
10:40 1019 30.09 848 25.04 20.5 68.9 37 5.3 41.6
10:45 1019 30.09 848 25.04 21.2 70.2 36 5.9 42.6
10:50 1019 30.09 848 25.04 21.1 70 37 6 42.8
10:55 1019 30.09 848 25.04 21.8 71.2 36 6.1 43
11:00 1019 30.09 848 25.04 21 69.8 39 6.7 44
11:05 1019 30.09 848 25.04 21.8 71.3 37 6.5 43.7
11:10 1019 30.09 848 25.04 22.3 72.1 35 6.4 43.6
11:15 1019 30.09 848 25.04 23.2 73.8 32 6 42.7
11:20 1019 30.09 848 25.04 23.2 73.7 34 6.5 43.6
11:25 1019 30.09 848 25.04 22.6 72.7 35 6.5 43.7
11:30 1019 30.09 848 25.04 23.4 74.1 31 5.7 42.3
11:35 1019 30.09 848 25.04 24.1 75.4 31 6.1 42.9
11:40 1019 30.09 848 25.04 23.8 74.9 31 6.1 43
11:45 1019 30.09 848 25.04 24.1 75.3 31 6.1 43
11:50 1019 30.09 848 25.04 23.6 74.5 32 6.3 43.4
11:55 1019 30.09 848 25.04 23.5 74.4 31 5.8 42.5
12:00 1019 30.09 848 25.04 23.7 74.6 30 5.5 41.9
12:05 1019 30.09 848 25.04 24.4 75.9 31 6.3 43.3
12:10 1019 30.09 848 25.04 25.2 77.4 29 6 42.9
12:15 1019 30.09 848 25.04 25.3 77.6 29 6.1 43
12:20 1018 30.06 848 25.04 25.3 77.5 29 6.4 43.5
12:25 1018 30.06 848 25.04 25.4 77.8 28 5.6 42.1
12:30 1018 30.06 848 25.04 25.6 78 29 6.5 43.8
12:35 1018 30.06 847 25.01 26.2 79.1 27 6 42.8
12:40 1018 30.06 847 25.01 26.4 79.5 28 6.4 43.6
12:45 1018 30.06 847 25.01 26.5 79.6 27 6.2 43.2
12:50 1018 30.06 847 25.01 26.1 79 27 6 42.7
12:55 1018 30.06 847 25.01 26.2 79.1 28 6.2 43.2
13:00 1018 30.06 847 25.01 26.4 79.5 27 6.4 43.5
13:05 1018 30.06 847 25.01 26.6 79.9 27 6.2 43.2
13:10 1018 30.06 847 25.01 26.6 79.9 27 6.3 43.3
13:15 1018 30.06 847 25.01 27.4 81.2 24 5.6 42.1
13:20 1018 30.06 847 25.01 28 82.4 23 5.4 41.7
13:25 1018 30.06 847 25.01 28.1 82.5 24 6.1 43
13:30 1018 30.06 847 25.01 27.5 81.5 24 5.6 42.1
13:35 1017 30.03 847 25.01 27.4 81.3 25 5.7 42.3
13:40 1017 30.03 847 25.01 27.4 81.3 24 5.4 41.8
13:45 1017 30.03 846 24.98 27.4 81.2 23 4.9 40.8
13:50 1017 30.03 846 24.98 28.2 82.7 22 5 41
13:55 1017 30.03 846 24.98 28.4 83.2 22 5.2 41.3
14:00 1017 30.03 846 24.98 28.2 82.8 21 3.9 39
14:05 1017 30.03 846 24.98 28.3 83 23 5.2 41.4
14:10 1017 30.03 846 24.98 28.6 83.4 21 4.6 40.3
14:15 1017 30.03 846 24.98 29.3 84.8 20 4.7 40.5
14:20 1017 30.03 846 24.98 29.4 84.9 20 4.3 39.7
14:25 1017 30.03 846 24.98 29.5 85.2 21 5.6 42
14:30 1017 30.03 846 24.98 29.4 85 20 4.2 39.5
14:35 1017 30.03 846 24.98 29.5 85 20 4.4 40
14:40 1017 30.03 846 24.98 29.2 84.6 21 4.9 40.8
14:45 1016 30 846 24.98 28.9 84 20 4.1 39.4
14:50 1016 30 846 24.98 29.1 84.3 20 4.5 40
14:55 1016 30 846 24.98 30.4 86.7 18 3.8 38.9
15:00 1016 30 846 24.98 31.1 88 18 4.7 40.4
15:05 1016 30 845 24.95 31 87.8 18 4.6 40.4
15:10 1016 30 845 24.95 31.4 88.6 18 4.4 39.9
15:15 1016 30 845 24.95 30.9 87.6 18 4.2 39.5
15:20 1016 30 845 24.95 30.7 87.3 18 4.1 39.4
15:25 1016 30 845 24.95 31 87.8 17 3.9 39
15:30 1016 30 845 24.95 31.1 88.1 17 3.2 37.8
15:35 1016 30 845 24.95 31.3 88.4 19 5.1 41.1
15:40 1016 30 845 24.95 30.9 87.6 19 4.6 40.3
15:45 1016 30 845 24.95 30.9 87.5 18 4.1 39.3
15:50 1016 30 845 24.95 30.8 87.4 18 4.3 39.8
15:55 1016 30 845 24.95 30.5 86.9 16 2.4 36.3
16:00 1016 30 845 24.95 30.6 87.1 19 4.5 40.1
16:05 1016 30 845 24.95 30.8 87.4 18 4.4 39.9
16:10 1016 30 845 24.95 30.3 86.5 19 4.3 39.7
16:15 1015 29.97 845 24.95 30.5 86.9 19 5 40.9
16:20 1015 29.97 845 24.95 30.5 86.8 18 3.8 38.9
16:25 1015 29.97 845 24.95 30.3 86.6 19 4.7 40.5
16:30 1015 29.97 844 24.92 30.6 87 18 4.2 39.6
16:35 1015 29.97 844 24.92 30.9 87.7 17 3.1 37.5
16:40 1015 29.97 844 24.92 30.9 87.6 18 4.2 39.6
16:45 1015 29.97 844 24.92 30.5 86.9 18 4.1 39.4
16:50 1015 29.97 844 24.92 30.2 86.3 19 4.5 40
16:55 1015 29.97 844 24.92 30.4 86.7 18 4 39.2
17:00 1015 29.97 844 24.92 30.2 86.3 19 4.3 39.7
17:05 1015 29.97 844 24.92 30.3 86.6 18 4.1 39.4
17:10 1015 29.97 844 24.92 30.5 87 19 4.5 40.1
17:15 1015 29.97 844 24.92 30.5 86.9 16 2.3 36.1
17:20 1015 29.97 844 24.92 30.7 87.2 17 3 37.5
17:25 1015 29.97 844 24.92 30.8 87.4 18 4.3 39.7
17:30 1015 29.97 844 24.92 30.5 86.9 19 4.8 40.7
17:35 1015 29.97 844 24.92 30.6 87.1 18 4 39.2
17:40 1015 29.97 844 24.92 30.4 86.7 18 3.7 38.7
17:45 1014 29.94 844 24.92 30.6 87.1 19 4.5 40.1
17:50 1014 29.94 844 24.92 30.2 86.3 18 3.7 38.7
17:55 1014 29.94 844 24.92 30.7 87.2 18 4.1 39.4
18:00 1014 29.94 844 24.92 30.1 86.2 18 3.3 37.9
18:05 1014 29.94 844 24.92 29.8 85.7 18 3 37.3
18:10 1014 29.94 844 24.92 29.8 85.6 18 3.3 37.9
18:15 1014 29.94 843 24.89 30.2 86.4 18 3.6 38.4
18:20 1014 29.94 843 24.89 30.5 86.8 16 2.2 36
18:25 1014 29.94 844 24.92 31.2 88.1 15 2 35.7
18:30 1014 29.94 843 24.89 31.5 88.7 15 1.9 35.4
18:35 1014 29.94 843 24.89 31.4 88.4 15 2.4 36.3
18:40 1014 29.94 843 24.89 31.2 88.1 15 1.9 35.4
18:45 1014 29.94 843 24.89 30.9 87.5 15 2 35.6
18:50 1014 29.94 843 24.89 30.8 87.4 15 2 35.5
18:55 1014 29.94 843 24.89 30.7 87.2 16 2.4 36.2
19:00 1014 29.94 843 24.89 30.1 86.1 16 2 35.6
19:05 1014 29.94 843 24.89 30.4 86.7 16 1.9 35.4
19:10 1014 29.94 843 24.89 29.9 85.8 16 1.9 35.3
19:15 1014 29.94 843 24.89 29.8 85.7 17 2.6 36.7
19:20 1014 29.94 843 24.89 30 86 16 1.5 34.6
19:25 1014 29.94 843 24.89 29.8 85.6 16 1.6 34.9
19:30 1014 29.94 843 24.89 29.8 85.6 16 1.7 35
19:35 1014 29.94 843 24.89 29.8 85.7 16 1.7 35.1
19:40 1014 29.94 843 24.89 29.8 85.7 16 1.9 35.4
19:45 1014 29.94 843 24.89 29.7 85.4 19 3.6 38.5
19:50 1014 29.94 843 24.89 29.6 85.3 18 2.7 36.9
19:55 1014 29.94 843 24.89 29.8 85.7 18 3.4 38
20:00 1014 29.94 843 24.89 30.2 86.3 17 3.2 37.7
20:05 1014 29.94 843 24.89 29.9 85.8 19 3.9 39
20:10 1014 29.94 843 24.89 29.4 85 20 4.7 40.4
20:15 1014 29.94 843 24.89 28.9 84.1 21 4.7 40.5
20:20 1014 29.94 843 24.89 28.6 83.6 23 5.5 41.9
20:25 1014 29.94 843 24.89 28.3 82.9 23 5.6 42.1
20:30 1014 29.94 843 24.89 27.7 81.8 23 4.9 40.9
20:35 1014 29.94 843 24.89 27.1 80.8 25 5.9 42.6
20:40 1014 29.94 843 24.89 26.5 79.8 27 6.1 42.9
20:45 1014 29.94 843 24.89 25.7 78.2 29 6.3 43.4
20:50 1014 29.94 843 24.89 25.3 77.5 28 5.5 41.9
20:55 1014 29.94 843 24.89 25.5 77.8 27 5.2 41.4
21:00 1014 29.94 843 24.89 25.3 77.6 26 4.7 40.5
21:05 1014 29.94 843 24.89 25.4 77.7 26 4.9 40.9
21:10 1014 29.94 843 24.89 25.3 77.5 26 4.7 40.5
21:15 1014 29.94 843 24.89 25.2 77.3 28 5.5 41.9
21:20 1014 29.94 843 24.89 24.7 76.5 29 5.9 42.6
21:25 1014 29.94 843 24.89 24.5 76 29 5.3 41.5
21:30 1014 29.94 843 24.89 24.7 76.4 26 4.3 39.7
21:35 1014 29.94 843 24.89 25.1 77.1 26 4.3 39.7
21:40 1014 29.94 844 24.92 25.3 77.5 26 4.9 40.8
21:45 1014 29.94 844 24.92 24.9 76.8 25 3.8 38.9
21:50 1014 29.94 844 24.92 25.2 77.4 24 3.2 37.7
21:55 1014 29.94 844 24.92 25.6 78.1 23 3.1 37.6
22:00 1014 29.94 844 24.92 25.5 77.9 24 3.7 38.6
22:05 1015 29.97 844 24.92 25.1 77.1 24 3.2 37.7
22:10 1015 29.97 844 24.92 25 77.1 22 2.3 36.2
22:15 1015 29.97 844 24.92 25.5 77.9 22 2.5 36.4
22:20 1015 29.97 844 24.92 25.5 77.8 25 4.3 39.8
22:25 1015 29.97 844 24.92 23.8 74.8 30 5.5 41.9
22:30 1015 29.97 844 24.92 22.4 72.3 33 5.6 42.1
22:35 1015 29.97 844 24.92 21.7 71.1 35 5.7 42.3
22:40 1015 29.97 844 24.92 21 69.7 37 5.9 42.6
22:45 1015 29.97 844 24.92 20.8 69.4 32 3.8 38.9
22:50 1015 29.97 844 24.92 21.7 71.1 31 4 39.1
22:55 1015 29.97 844 24.92 21.9 71.4 32 4.7 40.4
23:00 1015 29.97 844 24.92 21.5 70.7 34 5.3 41.5
23:05 1015 29.97 844 24.92 21.1 69.9 35 5.1 41.2
23:10 1015 29.97 844 24.92 21 69.8 34 4.6 40.4
23:15 1015 29.97 844 24.92 21.4 70.6 32 4.5 40
23:20 1015 29.97 844 24.92 21.6 70.9 33 4.7 40.5
23:25 1015 29.97 844 24.92 21.5 70.7 34 5 41
23:30 1015 29.97 844 24.92 21.3 70.3 39 6.8 44.2
23:35 1015 29.97 844 24.92 21.6 70.9 29 3.1 37.6
23:40 1015 29.97 844 24.92 22.4 72.3 35 6.3 43.3
23:45 1015 29.97 844 24.92 21.3 70.3 37 6.4 43.4
23:50 1015 29.97 844 24.92 20.5 68.9 36 5 41
23:55 1015 29.97 844 24.92 20.7 69.2 34 4.4 39.8
24:00 1015 29.97 844 24.92 20.7 69.2 41 7.3 45.1